Time;durP1;ratioP1;P1;durP2;ratioP2;P2;SDS_P1;SDS_P2;PMS_P1;PMS_P2;Temp;Humidity;BMP_temperature;BMP_pressure;BME280_temperature;BME280_humidity;BME280_pressure;Samples;Min_cycle;Max_cycle;Signal;HPM_P1;HPM_P2
2022/03/05 00:01:26;;;;;;;12.45;8.05;;;1.90;76.80;;;;;;4920897;29;20063;-67
2022/03/05 00:03:52;;;;;;;11.43;7.30;;;1.90;77.00;;;;;;4923002;29;20091;-67
2022/03/05 00:06:18;;;;;;;13.77;7.45;;;1.90;77.00;;;;;;4903225;29;20052;-67
2022/03/05 00:08:43;;;;;;;11.13;6.97;;;1.80;76.90;;;;;;4914081;29;20055;-67
2022/03/05 00:11:09;;;;;;;13.48;7.60;;;1.90;76.90;;;;;;4922308;29;20091;-68
2022/03/05 00:13:36;;;;;;;12.70;7.35;;;1.90;76.90;;;;;;4913072;29;20679;-67
2022/03/05 00:16:03;;;;;;;12.23;7.15;;;1.90;77.00;;;;;;4930955;29;20059;-68
2022/03/05 00:18:28;;;;;;;12.35;8.18;;;1.80;76.90;;;;;;4925211;29;20052;-68
2022/03/05 00:20:54;;;;;;;13.68;7.65;;;1.90;76.90;;;;;;4913924;29;20068;-68
2022/03/05 00:23:20;;;;;;;11.43;8.15;;;1.80;76.90;;;;;;4899537;29;20103;-67
2022/03/05 00:25:46;;;;;;;11.93;7.75;;;1.80;76.80;;;;;;4927648;29;20044;-68
2022/03/05 00:28:12;;;;;;;12.13;7.63;;;1.80;76.90;;;;;;4910489;29;20060;-67
2022/03/05 00:30:38;;;;;;;12.20;7.38;;;1.70;76.90;;;;;;4906301;29;20047;-67
2022/03/05 00:33:04;;;;;;;12.77;7.38;;;1.80;77.00;;;;;;4925660;29;20047;-68
2022/03/05 00:35:30;;;;;;;17.70;8.05;;;1.70;76.90;;;;;;4905998;29;20122;-68
2022/03/05 00:37:58;;;;;;;13.77;7.65;;;1.70;76.90;;;;;;4914230;29;20131;-68
2022/03/05 00:40:24;;;;;;;11.65;7.65;;;1.70;77.00;;;;;;4930915;29;20047;-67
2022/03/05 00:42:50;;;;;;;15.63;8.43;;;1.70;77.10;;;;;;4930686;29;20044;-67
2022/03/05 00:45:15;;;;;;;12.75;8.50;;;1.70;77.10;;;;;;4924873;29;20040;-67
2022/03/05 00:47:41;;;;;;;13.43;7.53;;;1.70;77.00;;;;;;4931404;29;20048;-67
2022/03/05 00:50:08;;;;;;;14.00;8.43;;;1.70;77.00;;;;;;4924518;29;20059;-67
2022/03/05 00:52:36;;;;;;;10.75;6.88;;;1.70;77.00;;;;;;4931159;29;20043;-69
2022/03/05 00:55:02;;;;;;;13.10;8.43;;;1.60;77.00;;;;;;4927196;29;20098;-68
2022/03/05 00:57:28;;;;;;;11.90;8.23;;;1.60;77.00;;;;;;4930920;29;20075;-68
2022/03/05 00:59:53;;;;;;;10.88;7.15;;;1.60;77.00;;;;;;4906624;29;20055;-68
2022/03/05 01:02:19;;;;;;;12.00;8.20;;;1.60;77.00;;;;;;4881017;29;20131;-68
2022/03/05 01:04:45;;;;;;;11.63;7.82;;;1.60;77.00;;;;;;4917182;29;20048;-67
2022/03/05 01:07:11;;;;;;;11.73;8.10;;;1.60;77.10;;;;;;4915818;29;20412;-67
2022/03/05 01:09:36;;;;;;;14.25;8.50;;;1.50;77.10;;;;;;4916094;29;20046;-67
2022/03/05 01:12:02;;;;;;;11.93;8.10;;;1.50;77.10;;;;;;4930863;29;20471;-67
2022/03/05 01:14:28;;;;;;;13.95;8.70;;;1.50;77.10;;;;;;4927030;29;20091;-67
2022/03/05 01:16:53;;;;;;;11.00;7.65;;;1.50;77.10;;;;;;4931267;29;20051;-67
2022/03/05 01:19:19;;;;;;;12.95;8.48;;;1.40;77.10;;;;;;4927687;29;20138;-68
2022/03/05 01:21:45;;;;;;;16.30;9.23;;;1.50;77.10;;;;;;4930748;29;20056;-68
2022/03/05 01:24:10;;;;;;;16.23;9.05;;;1.50;77.10;;;;;;4926249;29;20590;-68
2022/03/05 01:26:36;;;;;;;12.45;8.23;;;1.50;77.10;;;;;;4926301;29;20543;-68
2022/03/05 01:29:01;;;;;;;18.20;8.80;;;1.40;77.20;;;;;;4911952;29;20048;-68
2022/03/05 01:31:27;;;;;;;15.80;8.60;;;1.40;77.10;;;;;;4928031;29;20067;-68
2022/03/05 01:33:53;;;;;;;14.30;8.73;;;1.40;77.20;;;;;;4930820;29;20142;-68
2022/03/05 01:36:18;;;;;;;14.50;8.80;;;1.40;77.20;;;;;;4907657;29;20056;-68
2022/03/05 01:38:44;;;;;;;12.75;8.65;;;1.50;77.20;;;;;;4932368;29;20138;-66
2022/03/05 01:41:10;;;;;;;15.18;8.57;;;1.40;77.10;;;;;;4918062;29;20055;-68
2022/03/05 01:43:35;;;;;;;12.95;8.93;;;1.40;77.20;;;;;;4928552;29;20052;-68
2022/03/05 01:46:01;;;;;;;12.93;8.85;;;1.40;77.20;;;;;;4917070;29;20110;-67
2022/03/05 01:48:27;;;;;;;17.40;9.07;;;1.40;77.20;;;;;;4932665;29;20050;-67
2022/03/05 01:50:52;;;;;;;13.13;8.40;;;1.40;77.10;;;;;;4924518;29;20078;-67
2022/03/05 01:53:18;;;;;;;13.23;9.05;;;1.30;77.10;;;;;;4932867;29;20055;-68
2022/03/05 01:55:44;;;;;;;14.73;9.07;;;1.30;77.10;;;;;;4930941;29;20509;-68
2022/03/05 01:58:10;;;;;;;13.02;9.45;;;1.40;77.10;;;;;;4917584;29;20043;-67
2022/03/05 02:00:35;;;;;;;14.88;9.35;;;1.30;77.20;;;;;;4906326;29;20059;-68
2022/03/05 02:03:01;;;;;;;16.88;9.60;;;1.30;77.20;;;;;;4901583;29;20110;-67
2022/03/05 02:05:27;;;;;;;15.77;9.70;;;1.30;77.20;;;;;;4922797;29;20036;-68
2022/03/05 02:07:53;;;;;;;13.40;8.95;;;1.30;77.10;;;;;;4926778;29;20420;-67
2022/03/05 02:10:20;;;;;;;15.02;8.98;;;1.30;77.20;;;;;;4924217;29;20039;-67
2022/03/05 02:12:46;;;;;;;15.50;10.05;;;1.30;77.10;;;;;;4923783;29;20127;-67
2022/03/05 02:15:11;;;;;;;12.48;8.40;;;1.30;77.10;;;;;;4921723;29;20509;-67
2022/03/05 02:17:37;;;;;;;13.07;8.63;;;1.30;77.00;;;;;;4930171;29;20131;-68
2022/03/05 02:20:05;;;;;;;15.88;9.05;;;1.30;77.00;;;;;;4928187;29;20175;-68
2022/03/05 02:22:30;;;;;;;15.05;8.93;;;1.30;77.00;;;;;;4932664;29;20044;-68
2022/03/05 02:25:02;;;;;;;14.45;9.15;;;1.30;77.00;;;;;;4933942;29;20389;-67
2022/03/05 02:27:29;;;;;;;16.38;9.25;;;1.20;76.90;;;;;;4932132;29;20118;-67
2022/03/05 02:29:55;;;;;;;14.40;8.90;;;1.20;76.90;;;;;;4922176;29;20509;-67
2022/03/05 02:32:22;;;;;;;14.95;9.68;;;1.10;76.90;;;;;;4914760;29;20048;-68
2022/03/05 02:34:48;;;;;;;15.55;9.70;;;1.20;76.90;;;;;;4932935;29;20059;-68
2022/03/05 02:37:15;;;;;;;12.68;8.90;;;1.10;76.90;;;;;;4896418;29;20052;-68
2022/03/05 02:39:45;;;;;;;15.00;8.52;;;1.10;77.00;;;;;;4927248;29;20482;-69
2022/03/05 02:42:13;;;;;;;15.55;8.50;;;1.10;77.00;;;;;;4932526;29;20122;-68
2022/03/05 02:44:39;;;;;;;24.23;11.82;;;1.10;76.90;;;;;;4931716;29;20071;-67
2022/03/05 02:47:05;;;;;;;14.55;8.75;;;1.10;76.90;;;;;;4932262;29;20104;-67
2022/03/05 02:49:31;;;;;;;15.82;9.52;;;1.10;77.00;;;;;;4910559;29;20051;-68
2022/03/05 02:51:58;;;;;;;14.57;9.02;;;1.00;77.00;;;;;;4915617;29;20598;-68
2022/03/05 02:54:23;;;;;;;15.13;8.77;;;1.00;76.90;;;;;;4922714;29;20087;-68
2022/03/05 02:56:49;;;;;;;12.07;8.68;;;1.00;76.90;;;;;;4933217;29;20146;-68
2022/03/05 02:59:15;;;;;;;15.40;8.68;;;1.00;77.00;;;;;;4931835;29;20567;-68
2022/03/05 03:01:41;;;;;;;14.45;8.52;;;1.00;77.00;;;;;;4932147;29;20039;-68
2022/03/05 03:04:06;;;;;;;12.02;8.80;;;1.00;77.00;;;;;;4932389;29;20372;-68
2022/03/05 03:06:32;;;;;;;11.38;7.82;;;0.90;77.10;;;;;;4933455;29;20144;-68
2022/03/05 03:08:58;;;;;;;12.77;8.35;;;0.90;77.10;;;;;;4919652;29;20044;-67
2022/03/05 03:11:23;;;;;;;12.88;8.65;;;0.90;77.10;;;;;;4916401;29;20058;-68
2022/03/05 03:13:49;;;;;;;13.32;8.52;;;0.90;77.20;;;;;;4898779;29;20040;-68
2022/03/05 03:16:15;;;;;;;13.68;7.95;;;0.90;77.20;;;;;;4927757;29;20059;-68
2022/03/05 03:18:41;;;;;;;14.05;8.85;;;0.90;77.20;;;;;;4920978;29;20122;-67
2022/03/05 03:21:07;;;;;;;14.93;9.25;;;0.90;77.10;;;;;;4921066;29;20730;-67
2022/03/05 03:23:32;;;;;;;14.75;8.40;;;0.90;77.20;;;;;;4913829;29;20040;-66
2022/03/05 03:25:58;;;;;;;14.70;8.55;;;0.90;77.30;;;;;;4913984;29;20045;-69
2022/03/05 03:28:24;;;;;;;12.52;7.97;;;0.90;77.30;;;;;;4902005;29;20138;-68
2022/03/05 03:30:49;;;;;;;13.88;8.25;;;0.80;77.30;;;;;;4920634;29;20123;-69
2022/03/05 03:33:15;;;;;;;17.02;8.50;;;0.80;77.30;;;;;;4926792;29;20047;-68
2022/03/05 03:35:41;;;;;;;15.25;8.82;;;0.80;77.40;;;;;;4924661;29;20059;-67
2022/03/05 03:38:06;;;;;;;10.60;7.40;;;0.90;77.40;;;;;;4921647;29;20103;-68
2022/03/05 03:40:32;;;;;;;13.73;8.23;;;0.90;77.40;;;;;;4899342;29;20052;-67
2022/03/05 03:42:58;;;;;;;15.68;8.60;;;0.80;77.50;;;;;;4924609;29;20134;-67
2022/03/05 03:45:23;;;;;;;13.23;7.78;;;0.90;77.50;;;;;;4917431;29;20661;-67
2022/03/05 03:47:51;;;;;;;12.55;7.68;;;0.90;77.50;;;;;;4929548;29;20591;-67
2022/03/05 03:50:18;;;;;;;11.20;7.22;;;0.90;77.50;;;;;;4925663;29;20123;-67
2022/03/05 03:52:44;;;;;;;12.93;7.30;;;1.00;77.40;;;;;;4897509;29;20059;-68
2022/03/05 03:55:13;;;;;;;12.98;7.38;;;0.90;77.30;;;;;;4918848;29;20048;-67
2022/03/05 03:57:39;;;;;;;11.38;7.25;;;0.90;77.50;;;;;;4911461;29;20066;-68
2022/03/05 04:00:11;;;;;;;11.80;6.93;;;0.90;77.50;;;;;;4928776;29;20048;-68
2022/03/05 04:02:37;;;;;;;9.45;6.15;;;0.90;77.50;;;;;;4932209;29;20090;-67
2022/03/05 04:05:02;;;;;;;13.68;8.00;;;0.90;77.50;;;;;;4922427;29;20075;-68
2022/03/05 04:10:13;;;;;;;10.55;6.10;;;0.80;77.40;;;;;;4923247;29;20056;-67
2022/03/05 04:12:38;;;;;;;12.27;6.93;;;0.80;77.40;;;;;;4928623;29;20055;-67
2022/03/05 04:15:05;;;;;;;10.93;6.65;;;0.80;77.60;;;;;;4929828;29;20428;-68
2022/03/05 04:17:30;;;;;;;15.38;7.10;;;0.80;77.60;;;;;;4920307;29;20069;-67
2022/03/05 04:19:56;;;;;;;12.63;7.15;;;0.80;77.60;;;;;;4927816;29;20548;-68
2022/03/05 04:22:22;;;;;;;9.93;6.05;;;0.80;77.60;;;;;;4931456;29;20473;-68
2022/03/05 04:24:47;;;;;;;9.27;6.85;;;0.80;77.60;;;;;;4930699;29;20127;-68
2022/03/05 04:27:13;;;;;;;10.35;6.15;;;0.90;77.50;;;;;;4930771;29;20040;-68
2022/03/05 04:29:39;;;;;;;10.75;6.20;;;0.80;77.60;;;;;;4930548;29;20051;-68
2022/03/05 04:32:05;;;;;;;11.32;7.00;;;0.80;77.60;;;;;;4919108;29;20857;-68
2022/03/05 04:34:31;;;;;;;11.52;7.00;;;0.80;77.50;;;;;;4922021;29;20064;-68
2022/03/05 04:36:57;;;;;;;9.85;6.60;;;0.70;77.50;;;;;;4913468;29;20052;-67
2022/03/05 04:39:22;;;;;;;13.80;7.00;;;0.70;77.40;;;;;;4903269;29;20075;-67
2022/03/05 04:41:48;;;;;;;12.02;6.78;;;0.70;77.50;;;;;;4919938;29;20162;-68
2022/03/05 04:44:14;;;;;;;9.95;6.60;;;0.70;77.50;;;;;;4900949;29;20115;-67
2022/03/05 04:46:39;;;;;;;11.88;6.93;;;0.70;77.40;;;;;;4929400;29;20039;-67
2022/03/05 04:49:06;;;;;;;13.85;6.53;;;0.70;77.40;;;;;;4912251;29;20468;-67
2022/03/05 04:51:31;;;;;;;11.90;6.68;;;0.70;77.50;;;;;;4920213;29;20548;-67
2022/03/05 04:53:57;;;;;;;14.15;6.93;;;0.70;77.50;;;;;;4931085;29;20143;-67
2022/03/05 04:56:23;;;;;;;10.18;6.30;;;0.70;77.60;;;;;;4919865;29;20107;-67
2022/03/05 04:58:49;;;;;;;13.00;5.97;;;0.70;77.60;;;;;;4931129;29;20071;-68
2022/03/05 05:01:14;;;;;;;10.57;6.80;;;0.70;77.60;;;;;;4909375;29;20188;-68
2022/03/05 05:03:40;;;;;;;11.75;6.30;;;0.60;77.50;;;;;;4931199;29;20043;-68
2022/03/05 05:06:06;;;;;;;14.18;7.35;;;0.60;77.70;;;;;;4924667;29;20493;-67
2022/03/05 05:08:32;;;;;;;13.80;7.50;;;0.60;77.60;;;;;;4922366;29;20047;-68
2022/03/05 05:10:58;;;;;;;11.68;6.88;;;0.60;77.70;;;;;;4929274;29;20143;-68
2022/03/05 05:13:24;;;;;;;14.27;7.88;;;0.60;77.70;;;;;;4918867;29;20556;-68
2022/03/05 05:15:50;;;;;;;12.38;6.72;;;0.60;77.70;;;;;;4911729;29;20484;-68
2022/03/05 05:18:15;;;;;;;11.80;6.80;;;0.60;77.70;;;;;;4918849;29;20410;-68
2022/03/05 05:20:41;;;;;;;13.35;7.50;;;0.60;77.70;;;;;;4914288;29;20409;-68
2022/03/05 05:23:07;;;;;;;13.70;7.15;;;0.60;77.70;;;;;;4924194;29;20044;-68
2022/03/05 05:25:33;;;;;;;12.73;7.63;;;0.60;77.70;;;;;;4919891;29;20168;-68
2022/03/05 05:27:58;;;;;;;12.73;7.07;;;0.60;77.70;;;;;;4933033;29;20551;-67
2022/03/05 05:30:24;;;;;;;14.13;8.23;;;0.60;77.70;;;;;;4926220;29;20410;-67
2022/03/05 05:32:50;;;;;;;14.77;7.38;;;0.60;77.80;;;;;;4932951;29;20071;-68
2022/03/05 05:35:15;;;;;;;12.18;7.65;;;0.60;77.80;;;;;;4917268;29;20051;-68
2022/03/05 05:37:41;;;;;;;14.93;7.78;;;0.60;77.70;;;;;;4932068;29;20048;-69
2022/03/05 05:40:07;;;;;;;14.50;7.97;;;0.60;77.70;;;;;;4914850;29;20408;-68
2022/03/05 05:42:33;;;;;;;15.00;8.15;;;0.60;77.70;;;;;;4931482;29;20397;-68
2022/03/05 05:44:59;;;;;;;12.13;7.32;;;0.60;77.70;;;;;;4929882;29;20050;-68
2022/03/05 05:47:24;;;;;;;14.77;8.52;;;0.60;77.70;;;;;;4933347;29;20047;-68
2022/03/05 05:49:50;;;;;;;14.65;8.07;;;0.50;77.70;;;;;;4924405;29;20052;-68
2022/03/05 05:52:16;;;;;;;16.42;7.55;;;0.60;77.70;;;;;;4921752;29;20052;-68
2022/03/05 05:54:42;;;;;;;14.85;8.05;;;0.60;77.70;;;;;;4911105;29;20056;-67
2022/03/05 05:57:07;;;;;;;15.02;7.65;;;0.50;77.70;;;;;;4934600;29;20063;-68
2022/03/05 05:59:33;;;;;;;14.63;8.00;;;0.60;77.60;;;;;;4934140;29;20464;-67
2022/03/05 06:01:59;;;;;;;14.10;8.15;;;0.50;77.70;;;;;;4926442;29;20047;-68
2022/03/05 06:04:24;;;;;;;14.55;7.75;;;0.40;77.70;;;;;;4924421;29;20044;-68
2022/03/05 06:06:50;;;;;;;12.80;8.15;;;0.40;77.80;;;;;;4933388;29;20127;-68
2022/03/05 06:09:16;;;;;;;14.10;7.57;;;0.40;77.80;;;;;;4933544;29;20039;-68
2022/03/05 06:11:41;;;;;;;14.77;7.47;;;0.40;77.80;;;;;;4925731;29;20040;-68
2022/03/05 06:14:08;;;;;;;17.38;9.05;;;0.50;77.80;;;;;;4924703;29;20135;-68
2022/03/05 06:16:33;;;;;;;13.35;8.55;;;0.40;77.80;;;;;;4898117;29;20090;-67
2022/03/05 06:18:59;;;;;;;15.65;8.30;;;0.50;77.80;;;;;;4933074;29;20043;-68
2022/03/05 06:21:25;;;;;;;12.52;7.28;;;0.50;77.70;;;;;;4932762;29;20091;-67
2022/03/05 06:23:50;;;;;;;14.65;8.02;;;0.40;77.70;;;;;;4931908;29;20563;-68
2022/03/05 06:26:16;;;;;;;11.63;7.80;;;0.50;77.70;;;;;;4915614;29;20488;-67
2022/03/05 06:28:42;;;;;;;12.25;7.75;;;0.40;77.80;;;;;;4914675;29;20579;-68
2022/03/05 06:31:08;;;;;;;14.68;8.25;;;0.40;77.80;;;;;;4914809;29;20045;-67
2022/03/05 06:33:34;;;;;;;12.70;7.70;;;0.40;77.70;;;;;;4911331;29;20409;-67
2022/03/05 06:35:59;;;;;;;17.63;8.35;;;0.40;77.80;;;;;;4915601;29;20128;-68
2022/03/05 06:38:25;;;;;;;15.77;8.38;;;0.50;77.80;;;;;;4926666;29;20130;-67
2022/03/05 06:40:51;;;;;;;13.48;7.63;;;0.40;77.80;;;;;;4927701;29;20040;-67
2022/03/05 06:43:18;;;;;;;15.77;8.25;;;0.40;77.90;;;;;;4925149;29;20103;-68
2022/03/05 06:45:44;;;;;;;16.38;8.63;;;0.40;77.90;;;;;;4933254;29;20079;-68
2022/03/05 06:48:10;;;;;;;15.63;9.20;;;0.40;78.00;;;;;;4900034;29;20048;-69
2022/03/05 06:50:37;;;;;;;14.93;7.55;;;0.50;78.10;;;;;;4916415;29;20048;-69
2022/03/05 06:53:03;;;;;;;15.70;7.55;;;0.50;78.10;;;;;;4916227;29;20059;-67
2022/03/05 06:55:29;;;;;;;12.88;6.97;;;0.50;78.10;;;;;;4932133;29;20059;-68
2022/03/05 06:57:54;;;;;;;19.40;7.78;;;0.60;78.30;;;;;;4932026;29;20127;-66
2022/03/05 07:00:23;;;;;;;12.23;7.07;;;0.60;78.20;;;;;;4931443;29;20200;-68
2022/03/05 07:02:49;;;;;;;12.40;7.88;;;0.70;78.00;;;;;;4932786;29;20409;-68
2022/03/05 07:05:14;;;;;;;12.30;7.05;;;0.70;77.90;;;;;;4932972;29;20051;-67
2022/03/05 07:07:40;;;;;;;10.27;6.65;;;0.70;77.80;;;;;;4932223;29;20047;-66
2022/03/05 07:10:07;;;;;;;9.88;6.38;;;0.70;77.70;;;;;;4932314;29;20048;-66
2022/03/05 07:12:33;;;;;;;14.85;7.07;;;0.70;77.80;;;;;;4932797;29;20040;-66
2022/03/05 07:14:59;;;;;;;12.15;7.07;;;0.70;77.80;;;;;;4933282;29;20103;-67
2022/03/05 07:17:25;;;;;;;12.68;7.45;;;0.70;77.80;;;;;;4933201;29;20048;-67
2022/03/05 07:19:51;;;;;;;11.25;6.53;;;0.80;77.90;;;;;;4932679;29;20035;-67
2022/03/05 07:22:17;;;;;;;11.55;6.95;;;0.80;77.90;;;;;;4932753;29;20074;-67
2022/03/05 07:24:43;;;;;;;12.82;7.45;;;0.80;78.00;;;;;;4932777;29;20505;-67
2022/03/05 07:27:09;;;;;;;11.65;6.78;;;0.90;78.00;;;;;;4933121;29;20051;-68
2022/03/05 07:29:34;;;;;;;10.98;6.55;;;0.90;77.90;;;;;;4933027;29;20513;-67
2022/03/05 07:32:00;;;;;;;13.77;6.28;;;0.90;78.00;;;;;;4928045;29;20244;-67
2022/03/05 07:34:26;;;;;;;10.93;7.05;;;1.00;77.90;;;;;;4919372;29;20039;-67
2022/03/05 07:36:51;;;;;;;13.85;7.35;;;1.00;77.70;;;;;;4912015;29;20492;-67
2022/03/05 07:39:17;;;;;;;11.35;6.82;;;1.10;77.70;;;;;;4914896;29;20048;-67
2022/03/05 07:41:42;;;;;;;9.95;6.07;;;1.10;77.70;;;;;;4915392;29;20481;-67
2022/03/05 07:44:08;;;;;;;9.40;5.95;;;1.20;77.40;;;;;;4930654;29;20050;-67
2022/03/05 07:46:37;;;;;;;11.10;6.85;;;1.20;77.40;;;;;;4922833;29;20047;-67
2022/03/05 07:49:03;;;;;;;10.57;6.43;;;1.20;77.30;;;;;;4904926;29;20052;-67
2022/03/05 07:51:29;;;;;;;14.23;6.65;;;1.20;77.20;;;;;;4905408;29;20046;-66
2022/03/05 07:53:54;;;;;;;11.85;7.00;;;1.30;77.20;;;;;;4936223;29;20505;-67
2022/03/05 07:56:20;;;;;;;11.63;6.22;;;1.40;77.10;;;;;;4935334;29;20138;-67
2022/03/05 07:58:46;;;;;;;13.30;6.70;;;1.40;77.10;;;;;;4939502;29;20421;-66
2022/03/05 08:01:12;;;;;;;12.73;6.05;;;1.50;77.00;;;;;;4916648;29;20075;-66
2022/03/05 08:03:37;;;;;;;13.02;6.25;;;1.50;76.90;;;;;;4932936;29;20114;-67
2022/03/05 08:06:03;;;;;;;10.90;6.75;;;1.60;76.80;;;;;;4933366;29;20048;-67
2022/03/05 08:08:28;;;;;;;10.82;6.95;;;1.60;76.80;;;;;;4932931;29;20055;-66
2022/03/05 08:10:56;;;;;;;14.10;6.97;;;1.60;76.80;;;;;;4932892;29;20171;-67
2022/03/05 08:13:22;;;;;;;11.68;7.20;;;1.70;76.70;;;;;;4933612;29;20048;-67
2022/03/05 08:15:48;;;;;;;10.43;6.28;;;1.70;76.70;;;;;;4916297;29;20389;-66
2022/03/05 08:18:14;;;;;;;12.35;6.90;;;1.80;76.60;;;;;;4932019;29;20567;-67
2022/03/05 08:20:39;;;;;;;19.45;8.20;;;1.90;76.60;;;;;;4915801;29;20056;-67
2022/03/05 08:23:05;;;;;;;15.82;8.75;;;1.90;76.40;;;;;;4933280;29;20122;-67
2022/03/05 08:25:31;;;;;;;12.60;7.57;;;1.90;76.40;;;;;;4903449;29;20485;-67
2022/03/05 08:27:56;;;;;;;14.18;7.45;;;2.00;76.50;;;;;;4933233;29;20040;-67
2022/03/05 08:30:22;;;;;;;14.20;7.40;;;2.00;76.40;;;;;;4932454;29;20400;-66
2022/03/05 08:32:48;;;;;;;12.73;7.85;;;2.10;76.40;;;;;;4932827;29;20043;-66
2022/03/05 08:35:14;;;;;;;14.57;7.68;;;2.10;76.40;;;;;;4933334;29;20471;-66
2022/03/05 08:37:41;;;;;;;11.77;7.35;;;2.20;76.30;;;;;;4933181;29;20051;-67
2022/03/05 08:40:09;;;;;;;13.98;8.38;;;2.20;76.20;;;;;;4915463;29;20047;-66
2022/03/05 08:42:36;;;;;;;15.35;8.18;;;2.30;76.10;;;;;;4931510;29;20078;-66
2022/03/05 08:45:05;;;;;;;14.55;9.63;;;2.40;76.10;;;;;;4932848;29;20050;-67
2022/03/05 08:47:31;;;;;;;6.50;4.15;;;2.40;76.00;;;;;;4912331;29;20426;-68
2022/03/05 08:49:57;;;;;;;15.32;8.88;;;2.40;76.20;;;;;;4930450;29;20769;-67
2022/03/05 08:52:22;;;;;;;16.40;8.88;;;2.90;76.70;;;;;;4928497;29;20075;-67
2022/03/05 08:54:48;;;;;;;13.15;8.15;;;3.00;75.60;;;;;;4923340;29;20056;-67
2022/03/05 08:57:13;;;;;;;16.27;8.90;;;2.90;75.50;;;;;;4919110;29;20413;-66
2022/03/05 08:59:39;;;;;;;16.00;9.52;;;3.00;75.40;;;;;;4922708;29;20258;-68
2022/03/05 09:02:06;;;;;;;14.57;9.18;;;3.00;75.20;;;;;;4925644;29;20040;-66
2022/03/05 09:04:32;;;;;;;15.77;8.68;;;3.00;75.20;;;;;;4922100;29;20122;-67
2022/03/05 09:06:57;;;;;;;17.05;10.68;;;3.00;74.90;;;;;;4920784;29;20108;-66
2022/03/05 09:09:23;;;;;;;15.77;8.50;;;3.00;74.80;;;;;;4930322;29;20424;-66
2022/03/05 09:11:48;;;;;;;17.58;9.70;;;3.00;74.70;;;;;;4923424;29;20042;-67
2022/03/05 09:14:14;;;;;;;16.98;10.13;;;3.00;74.40;;;;;;4929838;29;20172;-66
2022/03/05 09:16:40;;;;;;;18.55;10.20;;;3.00;74.50;;;;;;4929113;29;20413;-66
2022/03/05 09:19:07;;;;;;;18.05;9.85;;;3.00;74.20;;;;;;4932506;29;20055;-67
2022/03/05 09:21:35;;;;;;;16.90;10.18;;;3.10;74.30;;;;;;4931330;29;20155;-65
2022/03/05 09:24:01;;;;;;;18.00;8.85;;;3.10;74.30;;;;;;4919025;29;20051;-66
2022/03/05 09:26:27;;;;;;;21.02;11.35;;;3.10;74.20;;;;;;4914582;29;20051;-66
2022/03/05 09:28:53;;;;;;;20.33;10.15;;;3.20;74.30;;;;;;4930820;29;20056;-66
2022/03/05 09:31:19;;;;;;;20.95;10.75;;;3.20;74.30;;;;;;4924666;29;20095;-67
2022/03/05 09:33:44;;;;;;;16.98;9.77;;;3.30;74.10;;;;;;4930907;29;20099;-67
2022/03/05 09:36:10;;;;;;;21.80;10.48;;;3.40;74.10;;;;;;4910318;29;20040;-67
2022/03/05 09:38:36;;;;;;;18.45;10.35;;;3.40;73.90;;;;;;4935195;29;20044;-68
2022/03/05 09:41:04;;;;;;;22.50;11.38;;;3.40;73.90;;;;;;4927955;29;20488;-68
2022/03/05 09:43:30;;;;;;;19.75;10.70;;;3.50;73.80;;;;;;4927726;29;20054;-68
2022/03/05 09:45:57;;;;;;;18.90;11.55;;;3.60;73.80;;;;;;4913896;29;20135;-69
2022/03/05 09:48:25;;;;;;;20.88;11.95;;;3.60;73.70;;;;;;4917032;29;20519;-67
2022/03/05 09:50:51;;;;;;;19.67;11.57;;;3.70;73.50;;;;;;4923919;29;20055;-68
2022/03/05 09:53:18;;;;;;;20.00;11.82;;;3.70;73.50;;;;;;4915929;29;20480;-68
2022/03/05 09:55:45;;;;;;;20.33;11.73;;;3.80;73.40;;;;;;4928390;29;20047;-71
2022/03/05 09:58:10;;;;;;;19.30;11.25;;;3.80;73.30;;;;;;4928016;29;20051;-68
2022/03/05 10:00:39;;;;;;;19.67;10.95;;;3.90;73.20;;;;;;4924789;29;20111;-68
2022/03/05 10:03:06;;;;;;;19.08;11.38;;;4.00;73.10;;;;;;4916662;29;20077;-68
2022/03/05 10:05:32;;;;;;;19.30;11.35;;;4.10;73.00;;;;;;4925857;29;20401;-66
2022/03/05 10:08:00;;;;;;;23.10;12.63;;;4.10;72.80;;;;;;4906989;29;20055;-69
2022/03/05 10:10:26;;;;;;;19.88;11.48;;;4.20;72.80;;;;;;4921373;29;20090;-68
2022/03/05 10:12:52;;;;;;;23.15;12.93;;;4.20;72.60;;;;;;4923596;29;20155;-69
2022/03/05 10:15:18;;;;;;;25.10;11.85;;;4.20;72.60;;;;;;4915201;29;20475;-66
2022/03/05 10:17:49;;;;;;;22.65;12.98;;;4.30;72.50;;;;;;4917677;29;20052;-65
2022/03/05 10:20:15;;;;;;;22.15;12.77;;;4.30;72.40;;;;;;4931103;29;20047;-68
2022/03/05 10:23:11;;;;;;;24.90;12.88;;;4.40;72.00;;;;;;4934346;29;20051;-67
2022/03/05 10:25:44;;;;;;;25.25;12.35;;;4.50;71.80;;;;;;4923565;29;20146;-69
2022/03/05 10:28:23;;;;;;;19.88;10.93;;;4.50;72.00;;;;;;4917213;29;20103;-69
2022/03/05 10:31:03;;;;;;;22.45;12.32;;;4.60;71.90;;;;;;4930561;29;20047;-67
2022/03/05 10:33:29;;;;;;;18.95;11.48;;;4.60;71.80;;;;;;4915906;29;20099;-68
2022/03/05 10:35:56;;;;;;;23.77;11.88;;;4.60;71.50;;;;;;4915925;29;20127;-68
2022/03/05 10:38:22;;;;;;;23.58;12.80;;;4.70;70.90;;;;;;4922578;29;20055;-67
2022/03/05 10:40:56;;;;;;;24.13;11.90;;;4.70;71.00;;;;;;4929495;29;20044;-67
2022/03/05 10:43:23;;;;;;;19.75;11.10;;;4.70;70.80;;;;;;4914079;29;20130;-67
2022/03/05 10:45:54;;;;;;;23.08;12.07;;;4.70;71.00;;;;;;4926390;29;20051;-67
2022/03/05 10:48:24;;;;;;;21.48;11.82;;;4.90;71.30;;;;;;4925259;29;20135;-67
2022/03/05 10:51:01;;;;;;;23.65;12.35;;;5.10;72.00;;;;;;4916902;29;20055;-67
2022/03/05 10:53:45;;;;;;;21.27;10.98;;;5.30;71.30;;;;;;4931735;29;20059;-67
2022/03/05 10:56:21;;;;;;;21.48;11.82;;;5.40;70.80;;;;;;4906809;29;20075;-68
2022/03/05 10:58:58;;;;;;;21.77;12.20;;;5.50;70.60;;;;;;4923120;29;20059;-67
2022/03/05 11:01:23;;;;;;;19.70;11.45;;;5.50;70.30;;;;;;4930992;29;20039;-67
2022/03/05 11:03:52;;;;;;;22.33;12.57;;;5.50;70.20;;;;;;4926509;29;20523;-68
2022/03/05 11:06:19;;;;;;;20.73;12.43;;;5.50;69.70;;;;;;4932126;29;20543;-68
2022/03/05 11:08:46;;;;;;;22.60;13.05;;;5.50;69.50;;;;;;4923723;29;20086;-67
2022/03/05 11:11:16;;;;;;;21.55;12.40;;;5.50;69.00;;;;;;4919917;29;20035;-67
2022/03/05 11:13:42;;;;;;;23.35;11.55;;;5.50;69.10;;;;;;4910943;29;20095;-68
2022/03/05 11:16:09;;;;;;;23.35;12.55;;;5.70;69.50;;;;;;4915279;29;20060;-67
2022/03/05 11:18:36;;;;;;;22.38;12.20;;;5.90;69.10;;;;;;4923145;29;20052;-67
2022/03/05 11:21:02;;;;;;;20.98;11.15;;;6.00;68.80;;;;;;4931537;29;20096;-68
2022/03/05 11:23:28;;;;;;;23.23;12.68;;;5.90;68.60;;;;;;4929421;29;20040;-69
2022/03/05 11:25:55;;;;;;;24.65;11.95;;;6.00;68.70;;;;;;4905128;29;20078;-69
2022/03/05 11:28:22;;;;;;;20.42;11.75;;;6.60;70.20;;;;;;4929213;29;20044;-67
2022/03/05 11:30:54;;;;;;;24.63;12.35;;;7.40;68.30;;;;;;4930485;29;20043;-66
2022/03/05 11:33:34;;;;;;;21.93;11.77;;;7.70;66.50;;;;;;4932190;29;20568;-66
2022/03/05 11:36:21;;;;;;;22.77;12.77;;;7.50;64.70;;;;;;4930148;29;20301;-67
2022/03/05 11:38:47;;;;;;;25.20;13.35;;;7.30;65.30;;;;;;4932106;29;20048;-66
2022/03/05 11:41:22;;;;;;;22.52;14.00;;;7.00;65.10;;;;;;4913385;29;20408;-67
2022/03/05 11:43:48;;;;;;;21.65;13.75;;;7.00;65.60;;;;;;4923397;29;20560;-67
2022/03/05 11:46:26;;;;;;;22.85;13.70;;;7.20;67.00;;;;;;4890814;29;20083;-68
2022/03/05 11:49:03;;;;;;;21.98;12.38;;;7.30;65.70;;;;;;4929593;29;20047;-68
2022/03/05 11:51:30;;;;;;;21.38;12.02;;;7.20;65.40;;;;;;4930807;29;20047;-66
2022/03/05 11:54:12;;;;;;;22.40;13.27;;;7.00;65.60;;;;;;4922026;29;20099;-67
2022/03/05 11:56:38;;;;;;;22.92;12.55;;;7.10;65.70;;;;;;4922139;29;20191;-67
2022/03/05 11:59:29;;;;;;;24.08;13.07;;;7.00;65.60;;;;;;4916876;29;20529;-67
2022/03/05 12:01:55;;;;;;;22.92;13.00;;;7.00;65.40;;;;;;4915329;29;20165;-68
2022/03/05 12:04:28;;;;;;;22.35;13.23;;;6.80;65.70;;;;;;4920581;29;20122;-67
2022/03/05 12:07:12;;;;;;;23.20;13.63;;;6.70;65.60;;;;;;4931713;29;20091;-67
2022/03/05 12:09:45;;;;;;;20.38;12.95;;;6.70;65.60;;;;;;4914247;29;20088;-68
2022/03/05 12:12:18;;;;;;;26.38;13.18;;;6.60;65.90;;;;;;4913138;29;20864;-67
2022/03/05 12:15:03;;;;;;;22.52;12.70;;;6.50;66.00;;;;;;4911940;29;20055;-68
2022/03/05 12:17:33;;;;;;;30.02;13.73;;;6.50;65.90;;;;;;4880018;29;20052;-67
2022/03/05 12:19:59;;;;;;;24.27;14.20;;;6.50;65.90;;;;;;4915632;29;20047;-67
2022/03/05 12:22:25;;;;;;;20.42;11.82;;;6.40;65.60;;;;;;4931677;29;20044;-67
2022/03/05 12:24:50;;;;;;;20.63;12.80;;;6.40;65.90;;;;;;4931533;29;20468;-67
2022/03/05 12:27:18;;;;;;;23.92;12.63;;;6.50;66.00;;;;;;4897841;29;20044;-67
2022/03/05 12:29:52;;;;;;;24.38;13.70;;;6.60;65.70;;;;;;4931428;29;20043;-67
2022/03/05 12:32:19;;;;;;;21.75;13.43;;;6.60;65.70;;;;;;4931293;29;20119;-67
2022/03/05 12:34:44;;;;;;;19.85;12.82;;;6.60;65.80;;;;;;4930694;29;20499;-67
2022/03/05 12:37:10;;;;;;;21.83;12.48;;;6.60;65.20;;;;;;4930986;29;20070;-67
2022/03/05 12:39:43;;;;;;;18.25;11.95;;;6.70;64.70;;;;;;4913561;29;20050;-67
2022/03/05 12:42:10;;;;;;;20.88;11.88;;;6.70;64.70;;;;;;4924191;29;20039;-67
2022/03/05 12:44:37;;;;;;;22.40;11.45;;;6.60;64.70;;;;;;4919208;29;20052;-67
2022/03/05 12:47:04;;;;;;;25.35;13.27;;;6.70;64.50;;;;;;4912819;29;20071;-67